ADDS TAF Board (Experimental) INFO

IDs: Format: Expanded Condensed

Updated at: 1525 UTC 22 Oct 2014

KSFO - San Francisco Intl, CA, US

Issued at 1501 UTC 22 Oct 2014
Time1456Z22/16Z22/17Z22/18Z22/19Z22/20Z22/21Z22/22Z22/23Z23/00Z23/01Z23/02Z23/03Z23/04Z
TypeOBSPRVLPRVLPRVLPRVLPRVLPRVLPRVLPRVLPRVLPRVLPRVLPRVLPRVL
VIS10>6>6>6>6>6>6>6>6>6>6>6>6>6
CIG200----------------------250250
CoverBKNSCTSCTSCTSCTSCTSCTSCTSCTSCTSCTSCTBKNBKN
FltCat--VFRVFRVFRVFRVFRVFRVFRVFRVFRVFRVFRVFRVFR
WX----------------------------
WDirVRB290290290290290280280280280280280270270
WSpd05555514141414141488
WGst----------------------------
R01/19
XWndVRB5555513131313131377
HWndVRB-1-1-1-1-1-4-4-4-4-4-4-4-4
R10/28
XWndVRB-1-1-1-1-1-4-4-4-4-4-4-4-4
HWndVRB-5-5-5-5-5-13-13-13-13-13-13-7-7
Raw TAF
KSFO 221501Z 2215/2318 29005KT P6SM SCT200
  FM222100 28014KT P6SM SCT250
  FM230300 27008KT P6SM BKN250
  FM231000 26003KT P6SM BKN015


Raw METAR
KSFO 221456Z 00000KT 10SM BKN200 15/12 A3004 RMK AO2 SLP173 T01500117 53002 $

TAF Board Legend

Hazard VFR MVFR IFR LIFR
Visibility (sm) >5 3≤X≤5 1≤X<3 <1
Ceiling (100 ft) >30 10≤X≤30 5≤X<10 <5
Wind Speed (kt) <10 10≤X<20 20≤X<30 ≥30
Wind Gust (kt) <15 15≤X<25 25≤X<35 ≥35
Weather No Wx Reported VCTS,-TS,-FZRA TS,FZRA +TS,+FZRA


Page loaded:  15:25 UTC  |   08:25 AM Pacific  |   09:25 AM Mountain  |   10:25 AM Central  |   11:25 AM Eastern

 

ADVISORIES

FORECASTS

FORECASTS

OBSERVATIONS

USER TOOLS

ABOUT US